createdAt,value
2022-09-15T00:02:18.442Z,1.92
2022-09-15T00:04:44.861Z,1.48
2022-09-15T00:07:10.981Z,1.40
2022-09-15T00:09:37.121Z,1.50
2022-09-15T00:12:03.416Z,1.48
2022-09-15T00:14:29.446Z,1.38
2022-09-15T00:16:56.119Z,1.08
2022-09-15T00:19:22.444Z,1.60
2022-09-15T00:21:48.501Z,1.75
2022-09-15T00:24:14.716Z,1.52
2022-09-15T00:26:41.086Z,1.60
2022-09-15T00:29:07.426Z,1.70
2022-09-15T00:31:33.896Z,2.70
2022-09-15T00:34:02.109Z,1.40
2022-09-15T00:36:28.548Z,1.70
2022-09-15T00:38:55.040Z,2.22
2022-09-15T00:41:22.923Z,2.35
2022-09-15T00:44:02.465Z,1.77
2022-09-15T00:46:33.855Z,2.30
2022-09-15T00:49:27.415Z,1.98
2022-09-15T00:52:11.180Z,2.00
2022-09-15T00:55:02.452Z,2.63
2022-09-15T00:57:55.566Z,2.15
2022-09-15T01:00:24.102Z,1.88
2022-09-15T01:02:50.847Z,1.73
2022-09-15T01:05:34.013Z,2.15
2022-09-15T01:08:23.397Z,2.00
2022-09-15T01:10:51.372Z,2.33
2022-09-15T01:13:17.485Z,1.80
2022-09-15T01:15:52.261Z,2.13
2022-09-15T01:18:30.829Z,2.33
2022-09-15T01:21:09.329Z,2.30
2022-09-15T01:24:04.689Z,3.50
2022-09-15T01:27:40.540Z,4.05
2022-09-15T01:30:01.962Z,3.80
2022-09-15T01:33:03.646Z,3.95
2022-09-15T01:35:51.653Z,2.92
2022-09-15T01:38:53.325Z,3.47
2022-09-15T01:41:36.994Z,3.22
2022-09-15T01:44:22.666Z,2.85
2022-09-15T01:46:59.782Z,3.97
2022-09-15T01:49:30.547Z,3.05
2022-09-15T01:51:56.603Z,3.35
2022-09-15T01:54:34.076Z,3.33
2022-09-15T01:57:01.820Z,3.20
2022-09-15T01:59:28.078Z,3.28
2022-09-15T02:02:03.191Z,2.70
2022-09-15T02:04:46.284Z,2.97
2022-09-15T02:07:23.294Z,3.00
2022-09-15T02:09:55.194Z,2.60
2022-09-15T02:12:37.240Z,2.63
2022-09-15T02:15:15.772Z,2.85
2022-09-15T02:17:49.830Z,3.20
2022-09-15T02:20:38.996Z,5.57
2022-09-15T02:23:13.277Z,4.60
2022-09-15T02:25:52.767Z,2.85
2022-09-15T02:28:23.296Z,2.30
2022-09-15T02:30:51.060Z,2.40
2022-09-15T02:33:20.480Z,2.10
2022-09-15T02:35:47.375Z,2.20
2022-09-15T02:38:14.432Z,2.35
2022-09-15T02:40:43.751Z,2.17
2022-09-15T02:43:16.847Z,2.25
2022-09-15T02:45:43.443Z,2.30
2022-09-15T02:48:09.571Z,1.80
2022-09-15T02:50:37.543Z,1.80
2022-09-15T02:53:05.178Z,2.42
2022-09-15T02:55:31.753Z,2.22
2022-09-15T02:57:59.197Z,2.10
2022-09-15T03:00:27.612Z,1.60
2022-09-15T03:02:54.529Z,1.80
2022-09-15T03:05:24.022Z,2.05
2022-09-15T03:07:51.549Z,1.70
2022-09-15T03:10:17.713Z,2.25
2022-09-15T03:12:49.045Z,2.08
2022-09-15T03:15:18.268Z,2.08
2022-09-15T03:17:46.305Z,2.00
2022-09-15T03:20:16.144Z,2.05
2022-09-15T03:22:43.223Z,1.67
2022-09-15T03:25:10.248Z,2.40
2022-09-15T03:27:37.422Z,1.35
2022-09-15T03:30:05.430Z,2.20
2022-09-15T03:32:32.030Z,1.83
2022-09-15T03:34:58.799Z,1.33
2022-09-15T03:37:25.693Z,1.67
2022-09-15T03:39:51.894Z,1.30
2022-09-15T03:42:18.932Z,2.08
2022-09-15T03:44:45.105Z,1.70
2022-09-15T03:47:11.197Z,1.98
2022-09-15T03:49:38.134Z,1.70
2022-09-15T03:52:04.252Z,1.80
2022-09-15T03:54:30.832Z,2.05
2022-09-15T03:56:56.901Z,1.90
2022-09-15T03:59:23.029Z,1.50
2022-09-15T04:01:50.217Z,3.22
2022-09-15T04:04:16.805Z,1.90
2022-09-15T04:06:44.477Z,1.40
2022-09-15T04:09:11.092Z,1.50
2022-09-15T04:11:38.752Z,1.40
2022-09-15T04:14:04.817Z,1.45
2022-09-15T04:16:31.236Z,1.88
2022-09-15T04:18:57.451Z,1.05
2022-09-15T04:21:25.728Z,1.65
2022-09-15T04:23:53.588Z,1.20
2022-09-15T04:26:32.028Z,1.55
2022-09-15T04:29:03.621Z,1.27
2022-09-15T04:31:30.928Z,1.42
2022-09-15T04:33:57.190Z,1.17
2022-09-15T04:36:25.357Z,1.50
2022-09-15T04:38:52.259Z,1.30
2022-09-15T04:41:18.777Z,1.25
2022-09-15T04:43:45.626Z,1.33
2022-09-15T04:46:13.326Z,1.75
2022-09-15T04:48:39.509Z,1.80
2022-09-15T04:51:09.730Z,1.45
2022-09-15T04:53:36.476Z,1.67
2022-09-15T04:56:17.176Z,1.23
2022-09-15T04:58:45.889Z,1.77
2022-09-15T05:01:15.192Z,1.30
2022-09-15T05:03:41.804Z,1.50
2022-09-15T05:06:10.715Z,1.17
2022-09-15T05:08:37.098Z,1.38
2022-09-15T05:11:09.390Z,1.20
2022-09-15T05:13:36.014Z,1.30
2022-09-15T05:16:13.379Z,1.50
2022-09-15T05:18:41.662Z,1.50
2022-09-15T05:21:10.433Z,1.13
2022-09-15T05:23:37.254Z,1.27
2022-09-15T05:26:06.644Z,1.40
2022-09-15T05:28:35.196Z,1.63
2022-09-15T05:31:06.326Z,1.73
2022-09-15T05:33:34.228Z,1.23
2022-09-15T05:36:00.404Z,1.48
2022-09-15T05:38:29.626Z,1.42
2022-09-15T05:41:02.196Z,2.28
2022-09-15T05:43:31.416Z,1.80
2022-09-15T05:45:57.537Z,1.48
2022-09-15T05:48:25.443Z,1.77
2022-09-15T05:50:53.792Z,1.02
2022-09-15T05:53:20.717Z,1.58
2022-09-15T05:55:47.053Z,1.42
2022-09-15T05:58:14.573Z,1.60
2022-09-15T06:00:41.871Z,1.20
2022-09-15T06:03:14.040Z,1.45
2022-09-15T06:05:40.297Z,1.58
2022-09-15T06:08:06.703Z,1.48
2022-09-15T06:10:32.789Z,1.20
2022-09-15T06:12:58.835Z,1.30
2022-09-15T06:15:24.871Z,1.35
2022-09-15T06:17:51.079Z,1.63
2022-09-15T06:20:18.202Z,1.92
2022-09-15T06:22:45.247Z,1.27
2022-09-15T06:25:12.593Z,1.10
2022-09-15T06:27:39.809Z,1.40
2022-09-15T06:30:07.464Z,1.20
2022-09-15T06:32:33.735Z,1.13
2022-09-15T06:34:59.919Z,1.05
2022-09-15T06:37:26.045Z,0.95
2022-09-15T06:39:52.084Z,0.90
2022-09-15T06:42:18.129Z,2.05
2022-09-15T06:44:44.230Z,0.93
2022-09-15T06:47:13.750Z,2.38
2022-09-15T06:49:39.816Z,1.38
2022-09-15T06:52:06.112Z,1.10
2022-09-15T06:54:32.368Z,1.15
2022-09-15T06:56:58.432Z,1.30
2022-09-15T06:59:24.616Z,1.60
2022-09-15T07:01:54.325Z,1.83
2022-09-15T07:04:21.464Z,1.33
2022-09-15T07:06:47.914Z,1.33
2022-09-15T07:09:14.172Z,1.95
2022-09-15T07:11:40.363Z,1.75
2022-09-15T07:14:06.621Z,1.20
2022-09-15T07:16:33.448Z,1.50
2022-09-15T07:19:01.687Z,2.20
2022-09-15T07:21:28.019Z,1.80
2022-09-15T07:23:56.609Z,1.80
2022-09-15T07:26:25.168Z,1.75
2022-09-15T07:28:55.176Z,2.97
2022-09-15T07:31:24.053Z,2.63
2022-09-15T07:33:50.425Z,2.05
2022-09-15T07:36:17.265Z,1.88
2022-09-15T07:38:45.272Z,1.00
2022-09-15T07:41:22.839Z,1.25
2022-09-15T07:43:50.877Z,1.50
2022-09-15T07:46:18.392Z,1.20
2022-09-15T07:48:46.593Z,1.95
2022-09-15T07:51:12.879Z,1.10
2022-09-15T07:53:39.039Z,1.38
2022-09-15T07:56:05.454Z,1.10
2022-09-15T07:58:33.023Z,1.00
2022-09-15T08:01:04.196Z,1.05
2022-09-15T08:03:30.941Z,1.83
2022-09-15T08:05:58.623Z,0.90
2022-09-15T08:08:25.098Z,0.90
2022-09-15T08:10:52.314Z,1.15
2022-09-15T08:13:18.507Z,1.42
2022-09-15T08:15:44.813Z,1.00
2022-09-15T08:18:11.297Z,1.10
2022-09-15T08:20:43.979Z,1.02
2022-09-15T08:23:10.650Z,1.27
2022-09-15T08:25:38.101Z,2.13
2022-09-15T08:28:04.171Z,1.00
2022-09-15T08:30:30.625Z,1.00
2022-09-15T08:32:57.001Z,1.42
2022-09-15T08:35:23.092Z,1.33
2022-09-15T08:37:50.124Z,1.30
2022-09-15T08:40:22.930Z,1.60
2022-09-15T08:42:53.282Z,1.58
2022-09-15T08:45:29.924Z,2.28
2022-09-15T08:48:03.626Z,2.00
2022-09-15T08:50:40.154Z,2.00
2022-09-15T08:53:26.744Z,1.40
2022-09-15T08:55:55.103Z,1.33
2022-09-15T08:58:37.438Z,1.42
2022-09-15T09:01:22.356Z,0.85
2022-09-15T09:04:10.593Z,1.20
2022-09-15T09:07:01.148Z,1.10
2022-09-15T09:10:06.319Z,1.77
2022-09-15T09:12:44.213Z,1.20
2022-09-15T09:15:43.492Z,1.23
2022-09-15T09:18:46.085Z,1.00
2022-09-15T09:21:12.104Z,1.40
2022-09-15T09:23:49.115Z,1.13
2022-09-15T09:26:15.340Z,1.27
2022-09-15T09:28:49.574Z,1.02
2022-09-15T09:31:22.248Z,0.88
2022-09-15T09:34:16.331Z,1.10
2022-09-15T09:36:42.417Z,1.42
2022-09-15T09:39:14.521Z,1.00
2022-09-15T09:41:41.864Z,1.48
2022-09-15T09:44:13.453Z,1.00
2022-09-15T09:46:42.091Z,1.27
2022-09-15T09:49:18.004Z,1.30
2022-09-15T09:51:51.546Z,0.77
2022-09-15T09:54:20.060Z,1.92
2022-09-15T09:56:48.424Z,1.20
2022-09-15T09:59:46.473Z,1.33
2022-09-15T10:02:28.185Z,1.08
2022-09-15T10:05:07.314Z,1.35
2022-09-15T10:07:39.276Z,1.45
2022-09-15T10:10:06.040Z,1.08
2022-09-15T10:12:39.976Z,1.63
2022-09-15T10:15:19.120Z,1.50
2022-09-15T10:17:47.753Z,1.90
2022-09-15T10:20:39.305Z,1.33
2022-09-15T10:25:57.692Z,1.60
2022-09-15T10:28:25.177Z,1.95
2022-09-15T10:31:25.419Z,1.73
2022-09-15T10:33:52.028Z,1.35
2022-09-15T10:36:19.481Z,1.63
2022-09-15T10:38:48.671Z,1.45
2022-09-15T10:41:21.579Z,1.23
2022-09-15T10:44:08.944Z,1.17
2022-09-15T10:46:39.205Z,1.58
2022-09-15T10:49:36.103Z,1.75
2022-09-15T10:52:33.583Z,1.20
2022-09-15T10:55:36.821Z,1.30
2022-09-15T10:58:39.856Z,1.20
2022-09-15T11:03:49.358Z,1.48
2022-09-15T11:06:15.453Z,1.08
2022-09-15T11:09:00.476Z,1.13
2022-09-15T11:11:38.580Z,1.80
2022-09-15T11:14:15.786Z,1.45
2022-09-15T11:16:59.915Z,1.48
2022-09-15T11:19:47.465Z,1.40
2022-09-15T11:22:18.912Z,1.10
2022-09-15T11:24:56.446Z,2.05
2022-09-15T11:27:54.984Z,1.05
2022-09-15T11:30:24.036Z,0.98
2022-09-15T11:33:15.911Z,1.00
2022-09-15T11:35:47.229Z,1.30
2022-09-15T11:38:23.792Z,1.38
2022-09-15T11:41:15.630Z,1.33
2022-09-15T11:43:45.409Z,1.38
2022-09-15T11:46:17.385Z,1.38
2022-09-15T11:48:54.457Z,1.17
2022-09-15T11:51:24.518Z,1.70
2022-09-15T11:54:00.561Z,0.98
2022-09-15T11:56:39.726Z,1.40
2022-09-15T11:59:21.957Z,0.80
2022-09-15T12:02:09.483Z,1.23
2022-09-15T12:04:46.925Z,0.75
2022-09-15T12:07:23.430Z,0.77
2022-09-15T12:09:49.628Z,0.90
2022-09-15T12:12:19.495Z,0.77
2022-09-15T12:14:47.541Z,0.77
2022-09-15T12:17:22.562Z,0.98
2022-09-15T12:20:02.593Z,0.98
2022-09-15T12:22:35.874Z,0.87
2022-09-15T12:25:11.162Z,0.88
2022-09-15T12:27:37.446Z,0.77
2022-09-15T12:30:05.479Z,1.00
2022-09-15T12:32:35.648Z,1.17
2022-09-15T12:35:11.523Z,1.17
2022-09-15T12:38:00.037Z,1.08
2022-09-15T12:40:35.179Z,1.05
2022-09-15T12:43:03.933Z,1.23
2022-09-15T12:45:33.380Z,1.30
2022-09-15T12:48:11.557Z,0.90
2022-09-15T12:50:40.444Z,1.27
2022-09-15T12:53:17.693Z,1.52
2022-09-15T12:56:11.274Z,1.27
2022-09-15T12:58:41.336Z,0.85
2022-09-15T13:01:43.096Z,1.48
2022-09-15T13:04:09.401Z,1.35
2022-09-15T13:06:35.644Z,1.63
2022-09-15T13:09:01.680Z,1.10
2022-09-15T13:11:36.928Z,1.13
2022-09-15T13:14:03.199Z,1.15
2022-09-15T13:16:45.629Z,1.30
2022-09-15T13:19:40.838Z,0.98
2022-09-15T13:22:30.390Z,1.00
2022-09-15T13:25:17.546Z,0.93
2022-09-15T13:27:47.462Z,0.70
2022-09-15T13:30:29.907Z,1.50
2022-09-15T13:33:11.469Z,0.98
2022-09-15T13:35:43.152Z,1.17
2022-09-15T13:38:37.070Z,0.90
2022-09-15T13:41:36.560Z,0.90
2022-09-15T13:44:36.586Z,1.10
2022-09-15T13:50:05.893Z,0.88
2022-09-15T13:52:53.546Z,1.05
2022-09-15T13:55:27.295Z,1.20
2022-09-15T14:00:48.528Z,1.40
2022-09-15T14:03:20.010Z,1.15
2022-09-15T14:05:49.147Z,1.15
2022-09-15T14:08:37.975Z,1.17
2022-09-15T14:11:07.949Z,1.35
2022-09-15T14:13:36.513Z,1.17
2022-09-15T14:16:19.042Z,0.90
2022-09-15T14:18:46.564Z,0.85
2022-09-15T14:21:24.783Z,1.20
2022-09-15T14:23:54.559Z,3.10
2022-09-15T14:26:24.013Z,0.85
2022-09-15T14:29:00.718Z,0.80
2022-09-15T14:31:40.488Z,0.82
2022-09-15T14:34:20.005Z,1.55
2022-09-15T14:36:53.976Z,1.10
2022-09-15T14:39:22.307Z,0.93
2022-09-15T14:41:49.575Z,1.23
2022-09-15T14:47:21.130Z,1.20
2022-09-15T14:49:48.129Z,1.35
2022-09-15T14:52:27.445Z,1.45
2022-09-15T14:55:01.689Z,1.25
2022-09-15T14:57:32.893Z,1.60
2022-09-15T15:00:12.541Z,1.65
2022-09-15T15:02:44.907Z,0.90
2022-09-15T15:05:22.612Z,2.40
2022-09-15T15:07:49.850Z,1.05
2022-09-15T15:10:34.897Z,1.33
2022-09-15T15:13:08.323Z,1.05
2022-09-15T15:15:37.481Z,1.10
2022-09-15T15:18:28.206Z,1.05
2022-09-15T15:20:57.501Z,1.33
2022-09-15T15:23:25.292Z,1.13
2022-09-15T15:25:52.456Z,1.08
2022-09-15T15:28:33.472Z,1.25
2022-09-15T15:31:15.527Z,1.75
2022-09-15T15:33:47.520Z,0.98
2022-09-15T15:36:13.678Z,1.10
2022-09-15T15:38:50.167Z,0.80
2022-09-15T15:41:31.968Z,1.30
2022-09-15T15:44:14.679Z,1.40
2022-09-15T15:46:50.587Z,0.90
2022-09-15T15:49:18.561Z,0.63
2022-09-15T15:51:44.619Z,0.90
2022-09-15T15:54:11.121Z,0.93
2022-09-15T15:56:38.032Z,0.95
2022-09-15T15:59:05.081Z,0.98
2022-09-15T16:01:31.722Z,1.02
2022-09-15T16:03:58.046Z,1.00
2022-09-15T16:06:24.344Z,1.15
2022-09-15T16:08:51.327Z,0.98
2022-09-15T16:11:18.516Z,0.93
2022-09-15T16:13:44.659Z,1.20
2022-09-15T16:16:17.950Z,1.05
2022-09-15T16:18:44.301Z,5.90
2022-09-15T16:21:41.427Z,1.00
2022-09-15T16:24:13.985Z,0.80
2022-09-15T16:26:40.850Z,1.10
2022-09-15T16:29:07.063Z,0.57
2022-09-15T16:31:34.158Z,0.55
2022-09-15T16:34:00.430Z,0.60
2022-09-15T16:36:27.736Z,0.60
2022-09-15T16:38:54.008Z,0.98
2022-09-15T16:41:22.993Z,0.90
2022-09-15T16:43:49.498Z,0.47
2022-09-15T16:46:17.244Z,0.98
2022-09-15T16:48:43.567Z,0.77
2022-09-15T16:51:27.404Z,0.73
2022-09-15T16:53:57.158Z,0.70
2022-09-15T16:56:23.371Z,1.17
2022-09-15T16:58:52.270Z,0.82
2022-09-15T17:01:21.620Z,1.13
2022-09-15T17:03:48.238Z,0.63
2022-09-15T17:06:17.035Z,0.60
2022-09-15T17:08:43.579Z,0.63
2022-09-15T17:11:16.848Z,0.77
2022-09-15T17:13:43.876Z,0.85
2022-09-15T17:16:12.101Z,0.45
2022-09-15T17:18:38.330Z,0.93
2022-09-15T17:21:04.829Z,0.95
2022-09-15T17:23:36.202Z,1.05
2022-09-15T17:28:35.762Z,1.20
2022-09-15T17:31:11.797Z,0.90
2022-09-15T17:33:38.317Z,0.70
2022-09-15T17:36:04.495Z,0.55
2022-09-15T17:38:31.184Z,1.00
2022-09-15T17:40:58.286Z,0.98
2022-09-15T17:43:26.861Z,0.77
2022-09-15T17:45:54.077Z,1.30
2022-09-15T17:48:20.463Z,0.93
2022-09-15T17:50:48.055Z,0.80
2022-09-15T17:53:20.474Z,0.80
2022-09-15T17:55:46.737Z,0.82
2022-09-15T17:58:13.006Z,0.77
2022-09-15T18:00:41.745Z,1.08
2022-09-15T18:03:30.228Z,1.67
2022-09-15T18:05:58.641Z,0.95
2022-09-15T18:09:10.817Z,1.13
2022-09-15T18:11:36.893Z,0.60
2022-09-15T18:14:02.908Z,1.02
2022-09-15T18:16:28.995Z,1.30
2022-09-15T18:18:55.113Z,1.17
2022-09-15T18:24:29.315Z,1.13
2022-09-15T18:26:57.699Z,1.13
2022-09-15T18:29:23.774Z,0.82
2022-09-15T18:31:53.200Z,0.95
2022-09-15T18:34:20.030Z,0.90
2022-09-15T18:36:46.878Z,0.93
2022-09-15T18:39:13.104Z,0.85
2022-09-15T18:41:42.896Z,1.02
2022-09-15T18:44:09.134Z,0.88
2022-09-15T18:46:35.349Z,1.10
2022-09-15T18:49:02.594Z,1.50
2022-09-15T18:51:34.829Z,1.05
2022-09-15T18:54:15.314Z,0.70
2022-09-15T18:56:41.369Z,0.52
2022-09-15T18:59:17.513Z,0.70
2022-09-15T19:01:44.128Z,0.73
2022-09-15T19:04:14.415Z,0.80
2022-09-15T19:06:46.721Z,0.75
2022-09-15T19:09:16.325Z,0.68
2022-09-15T19:11:42.908Z,0.98
2022-09-15T19:14:09.021Z,0.73
2022-09-15T19:16:56.527Z,0.82
2022-09-15T19:19:21.805Z,0.90
2022-09-15T19:21:47.939Z,0.80
2022-09-15T19:24:15.434Z,0.85
2022-09-15T19:26:42.746Z,0.80
2022-09-15T19:29:08.975Z,0.70
2022-09-15T19:31:41.212Z,1.40
2022-09-15T19:34:08.410Z,1.15
2022-09-15T19:36:34.672Z,1.40
2022-09-15T19:39:02.918Z,1.77
2022-09-15T19:41:29.194Z,0.65
2022-09-15T19:43:55.743Z,0.60
2022-09-15T19:46:24.526Z,0.80
2022-09-15T19:48:51.704Z,1.05
2022-09-15T19:51:18.958Z,0.80
2022-09-15T19:53:45.924Z,1.08
2022-09-15T19:56:18.052Z,1.15
2022-09-15T19:58:45.473Z,0.95
2022-09-15T20:01:11.780Z,1.52
2022-09-15T20:03:39.344Z,1.00
2022-09-15T20:06:36.532Z,1.65
2022-09-15T20:09:03.524Z,0.75
2022-09-15T20:11:30.911Z,0.80
2022-09-15T20:13:57.218Z,1.50
2022-09-15T20:16:24.495Z,1.27
2022-09-15T20:18:53.280Z,1.27
2022-09-15T20:21:48.601Z,1.48
2022-09-15T20:24:15.941Z,1.02
2022-09-15T20:26:42.434Z,1.30
2022-09-15T20:29:10.311Z,1.38
2022-09-15T20:31:37.692Z,1.70
2022-09-15T20:34:04.371Z,1.20
2022-09-15T20:36:32.952Z,1.45
2022-09-15T20:39:00.635Z,1.67
2022-09-15T20:41:28.098Z,1.52
2022-09-15T20:43:58.992Z,1.55
2022-09-15T20:46:25.662Z,1.17
2022-09-15T20:48:52.086Z,1.10
2022-09-15T20:51:26.293Z,1.02
2022-09-15T20:53:55.107Z,1.33
2022-09-15T20:56:25.024Z,1.13
2022-09-15T20:58:56.418Z,1.50
2022-09-15T21:01:25.165Z,1.40
2022-09-15T21:03:51.658Z,1.45
2022-09-15T21:06:20.684Z,1.23
2022-09-15T21:08:48.294Z,1.10
2022-09-15T21:11:16.237Z,1.35
2022-09-15T21:13:43.805Z,1.35
2022-09-15T21:16:14.853Z,1.50
2022-09-15T21:18:42.519Z,1.10
2022-09-15T21:21:10.110Z,1.50
2022-09-15T21:23:37.359Z,1.50
2022-09-15T21:26:07.320Z,1.20
2022-09-15T21:28:34.931Z,1.10
2022-09-15T21:31:21.452Z,1.80
2022-09-15T21:33:48.754Z,1.48
2022-09-15T21:36:21.282Z,1.30
2022-09-15T21:38:48.637Z,1.23
2022-09-15T21:41:17.167Z,1.27
2022-09-15T21:43:45.527Z,1.33
2022-09-15T21:46:17.679Z,1.30
2022-09-15T21:48:46.691Z,1.65
2022-09-15T21:51:15.043Z,1.80
2022-09-15T21:53:42.525Z,2.05
2022-09-15T21:56:11.273Z,1.55
2022-09-15T21:58:42.997Z,1.25
2022-09-15T22:01:23.205Z,2.22
2022-09-15T22:03:58.105Z,1.38
2022-09-15T22:06:32.466Z,1.52
2022-09-15T22:08:59.962Z,1.42
2022-09-15T22:11:26.372Z,1.40
2022-09-15T22:13:52.782Z,1.50
2022-09-15T22:16:21.244Z,2.10
2022-09-15T22:18:48.236Z,1.17
2022-09-15T22:21:19.561Z,1.50
2022-09-15T22:23:47.112Z,1.65
2022-09-15T22:26:19.300Z,1.50
2022-09-15T22:28:45.678Z,1.60
2022-09-15T22:31:14.023Z,1.08
2022-09-15T22:33:41.883Z,1.17
2022-09-15T22:36:13.507Z,1.23
2022-09-15T22:38:39.787Z,1.70
2022-09-15T22:41:11.495Z,1.48
2022-09-15T22:43:39.290Z,1.40
2022-09-15T22:46:06.739Z,1.33
2022-09-15T22:48:33.472Z,1.65
2022-09-15T22:51:00.020Z,1.15
2022-09-15T22:53:26.473Z,1.23
2022-09-15T22:56:07.684Z,1.42
2022-09-15T22:58:35.089Z,1.25
2022-09-15T23:01:09.008Z,1.63
2022-09-15T23:03:35.984Z,1.65
2022-09-15T23:06:03.261Z,1.60
2022-09-15T23:08:29.924Z,1.45
2022-09-15T23:11:06.405Z,1.50
2022-09-15T23:13:33.328Z,1.65
2022-09-15T23:15:59.770Z,1.20
2022-09-15T23:18:26.657Z,1.00
2022-09-15T23:21:04.518Z,1.33
2022-09-15T23:23:30.740Z,1.10
2022-09-15T23:25:56.858Z,1.40
2022-09-15T23:28:23.235Z,1.50
2022-09-15T23:30:54.129Z,1.08
2022-09-15T23:33:21.587Z,1.30
2022-09-15T23:35:48.573Z,1.00
2022-09-15T23:38:15.426Z,1.55
2022-09-15T23:40:42.702Z,1.30
2022-09-15T23:43:10.151Z,1.30
2022-09-15T23:45:37.418Z,1.33
2022-09-15T23:48:04.849Z,1.15
2022-09-15T23:50:32.105Z,1.52
2022-09-15T23:52:58.833Z,1.38
2022-09-15T23:55:25.439Z,1.60
2022-09-15T23:57:51.982Z,1.42
